Flight Track Log - Related Links

Times and Time Zones

All times are in EDT time to prevent confusion due to time zone crossing. See the TPA726 flight status page for this flight to view local times or setup timezone preferences in your user account.

Time Position Orientation Groundspeed Altitude Reporting Facility
EDT Latitude Longitude Course Direction KTS MPH feet Rate Location/Type
Sat 08:23:53 AM 22.6292 -78.7133 North 460 529 38,000  Level Miami Center
Sat 08:24:53 AM 22.7581 -78.7581 342° North 455 524 38,000  Level Miami Center
Sat 08:25:53 AM 22.8936 -78.7914 347° North 466 536 38,000  Level Miami Center
Sat 08:26:53 AM 23.0083 -78.8089 352° North 445 512 38,000  Level Miami Center
Sat 08:27:00 AM 8.3395 -75.9224 347° North  Level Estimated
Sat 08:27:53 AM 23.1353 -78.8447 345° North 455 524 38,000  Level Miami Center
Sat 08:28:00 AM 8.4561 -75.9060 North  Level FlightAware Approximate
Sat 08:28:53 AM 23.2600 -78.8806 345° North 445 512 38,000  Level Miami Center
Sat 08:29:00 AM 8.5728 -75.8895 North  Level FlightAware Approximate
Sat 08:34:19 AM 23.9260 -79.0510 345° North 432 497 38,000  Level FlightAware ADS-B
Sat 08:35:14 AM 24.0320 -79.0850 344° North 434 499 37,900 -367 Descending FlightAware ADS-B
Sat 08:35:57 AM 24.1050 -79.1200 336° Northwest 441 507 37,400 -4,094 Descending FlightAware ADS-B
Sat 08:36:39 AM 24.2000 -79.1630 338° Northwest 478 550 32,100 -5,655 Descending FlightAware ADS-B
Sat 08:37:24 AM 24.2900 -79.2060 336° Northwest 492 566 29,200 -2,571 Descending FlightAware ADS-B
Sat 08:38:17 AM 24.3590 -79.2380 337° Northwest 473 544 27,900 -2,337 Descending FlightAware ADS-B
Sat 08:38:59 AM 24.4840 -79.2970 337° Northwest 454 522 25,500 -2,621 Descending FlightAware ADS-B
Sat 08:39:44 AM 24.5710 -79.3380 337° Northwest 438 504 24,100 -2,289 Descending FlightAware ADS-B
Sat 08:40:36 AM 24.6450 -79.3730 337° Northwest 441 507 21,800 -2,779 Descending FlightAware ADS-B
Sat 08:41:19 AM 24.7480 -79.4220 337° Northwest 422 486 19,700 -2,591 Descending FlightAware ADS-B
Sat 08:42:04 AM 24.8290 -79.4600 337° Northwest 419 482 18,000 -2,400 Descending FlightAware ADS-B
Sat 08:42:44 AM 24.9010 -79.4940 337° Northwest 407 468 16,300 -1,906 Descending FlightAware ADS-B
Sat 08:43:29 AM 24.9790 -79.5320 336° Northwest 388 447 15,300 -1,200 Descending FlightAware ADS-B
Sat 08:44:09 AM 25.0430 -79.5620 337° Northwest 371 427 14,600 -1,360 Descending FlightAware ADS-B
Sat 08:44:44 AM 25.0980 -79.5880 337° Northwest 368 423 13,600 -1,543 Descending FlightAware ADS-B
Sat 08:45:54 AM 25.1910 -79.6330 336° Northwest 353 406 11,900 -1,409 Descending FlightAware ADS-B
Sat 08:46:39 AM 25.2670 -79.6690 337° Northwest 348 400 10,900 -1,059 Descending FlightAware ADS-B
Sat 08:47:19 AM 25.3300 -79.7020 335° Northwest 310 357 10,400 -909 Descending FlightAware ADS-B
Sat 08:47:45 AM 25.3580 -79.7270 321° Northwest 293 337 9,900 -2,000 Descending FlightAware ADS-B
Sat 08:48:19 AM 25.3950 -79.7590 322° Northwest 287 330 8,400 -2,455 Descending FlightAware ADS-B
Sat 08:48:29 AM 25.4040 -79.7670 321° Northwest 286 329 8,100 -2,250 Descending FlightAware ADS-B
Sat 08:48:59 AM 25.4360 -79.7940 323° Northwest 275 316 6,900 -2,172 Descending FlightAware ADS-B
Sat 08:49:27 AM 25.4610 -79.8160 322° Northwest 275 316 6,000 -1,527 Descending FlightAware ADS-B
Sat 08:49:54 AM 25.4920 -79.8430 322° Northwest 273 314 5,500 -977 Descending FlightAware ADS-B
Sat 08:50:10 AM 25.5080 -79.8570 322° Northwest 271 312 5,300 -900 Descending FlightAware ADS-B
Sat 08:50:34 AM 25.5330 -79.8780 323° Northwest 267 307 4,900 -1,111 Descending FlightAware ADS-B
Sat 08:51:04 AM 25.5630 -79.9040 322° Northwest 272 313 4,300 -1,179 Descending FlightAware ADS-B
Sat 08:51:30 AM 25.5880 -79.9260 322° Northwest 270 311 3,800 -982 Descending FlightAware ADS-B
Sat 08:51:59 AM 25.6160 -79.9500 322° Northwest 266 306 3,400 -667 Descending FlightAware ADS-B
Sat 08:52:24 AM 25.6400 -79.9710 322° Northwest 252 290 3,200 -400 Descending FlightAware ADS-B
Sat 08:52:59 AM 25.6710 -79.9980 322° Northwest 229 264 3,000 -327 Descending FlightAware ADS-B
Sat 08:53:19 AM 25.6880 -80.0130 322° Northwest 227 261 2,900 -150 Descending FlightAware ADS-B
Sat 08:53:39 AM 25.7060 -80.0280 323° Northwest 226 260 2,900  Level FlightAware ADS-B
Sat 08:54:05 AM 25.7270 -80.0460 322° Northwest 227 261 2,900  Level FlightAware ADS-B
Sat 08:54:34 AM 25.7500 -80.0690 318° Northwest 217 250 2,900  Level FlightAware ADS-B
Sat 08:54:44 AM 25.7550 -80.0790 299° West 211 243 2,900 -522 Level FlightAware ADS-B
Sat 08:55:20 AM 25.7690 -80.1110 296° West 197 227 2,500 -369 Descending FlightAware ADS-B
Sat 08:55:49 AM 25.7780 -80.1340 293° West 197 227 2,500 -556 Level FlightAware ADS-B
Sat 08:56:14 AM 25.7810 -80.1420 293° West 182 209 2,000 -1,080 Descending FlightAware ADS-B
Sat 08:56:39 AM 25.7910 -80.1780 287° West 150 173 1,600 -857 Descending FlightAware ADS-B
Sat 08:57:24 AM 25.7900 -80.2130 268° West 146 168 1,000 -800 Descending FlightAware ADS-B
Sat 08:57:54 AM 25.7890 -80.2350 267° West 145 167 600 -720 Descending FlightAware ADS-B
Sat 08:58:14 AM 25.7890 -80.2490 270° West 146 168 400 -600 Descending FlightAware ADS-B
Sat 08:58:46 AM 25.7880 -80.2730 267° West 144 166 -750 Descending FlightAware ADS-B
Sat 08:59:16 AM 25.7870 -80.2930 267° West 100 115  Level FlightAware ADS-B
Sat 08:59:43 AM 25.7870 -80.3010 270° West 38 44  Level FlightAware ADS-B
Sat 09:00:08 AM 25.7870 -80.3030 270° West 24 28  Level FlightAware ADS-B
Sat 09:00:52 AM 25.7880 -80.3030 360° North 22 25  Level FlightAware ADS-B
Sat 09:01:34 AM 25.7890 -80.3060 290° West 28 32  Level FlightAware ADS-B
Sat 09:02:02 AM 25.7900 -80.3060 360° North 24 28  Level FlightAware ADS-B
Sat 09:02:38 AM 25.7920 -80.3060 360° North 14 16  Level FlightAware ADS-B
Sat 09:03:13 AM 25.7920 -80.3050 90° East 15 17  Level FlightAware ADS-B
Sat 09:05:00 AM 25.7954 -80.2901 77° East  Level Estimated
Sat 09:06:00 AM 25.7954 -80.2901 77° East  Level Estimated
Sat 09:07:00 AM 25.7954 -80.2901 77° East  Level Estimated

Login

Don't have an account? Register now (free) for customized features, flight alerts, and more!